Latest Weather Observations for Jandakot

IDW60901

Issued at 1:11 pm WST Tuesday 23 October 2018 (issued every 10 minutes, with the page automatically refreshed every 10 minutes)

About weather observations | Map of Perth area stations | Latest observations for Perth area | Other Formats
Station Details ID: 009172 Name: JANDAKOT AERO Lat: -32.10 Lon: 115.88 Height: 30.0 m
Data from the previous 72 hours. | See also: Recent months at Jandakot
Date/Time
WST
Temp
°C
App
Temp
°C
Dew
Point
°C
Rel
Hum
%
Delta-T
°C
Wind Press
QNH
hPa
Press
MSL
hPa
Rain since
9am
mm
Dir  Spd
km/h
Gust
km/h
Spd
kts
Gust
kts
23/01:00pm 19.9 15.7 5.9 40 6.9 WSW 17 28 9 15 1017.7 1017.7 0.0
23/12:30pm 19.5 14.9 6.3 42 6.6 SW 20 30 11 16 1018.0 1018.0 0.0
23/12:00pm 19.7 15.3 7.4 45 6.3 WSW 20 32 11 17 1018.2 1018.2 0.0
23/11:30am 18.9 14.7 7.4 47 5.8 W 19 26 10 14 1018.4 1018.4 0.0
23/11:00am 19.4 15.9 7.2 45 6.2 WNW 15 20 8 11 1018.7 1018.7 0.0
23/10:30am 18.9 16.7 7.7 48 5.7 NNW 9 15 5 8 1019.0 1019.0 0.0
23/10:00am 18.9 17.1 8.0 49 5.6 NE 7 11 4 6 1019.0 1019.0 0.0
23/09:30am 18.2 16.2 10.3 60 4.2 N 11 15 6 8 1019.1 1019.1 0.0
23/09:00am 16.7 14.0 9.1 61 3.9 NE 13 17 7 9 1019.3 1019.3 0.0
23/08:30am 15.3 11.5 9.2 67 3.1 NE 19 24 10 13 1019.5 1019.5 0.0
23/08:00am 14.4 11.4 9.2 71 2.6 ENE 15 24 8 13 1019.6 1019.6 0.0
23/07:30am 13.3 11.1 9.4 77 2.0 E 11 13 6 7 1019.9 1019.9 0.0
23/07:00am 12.2 10.0 9.4 83 1.4 ESE 11 17 6 9 1020.0 1020.0 0.0
23/06:30am 11.0 9.2 9.4 90 0.8 E 9 13 5 7 1019.9 1019.9 0.0
23/06:00am 10.1 8.2 9.0 93 0.5 E 9 11 5 6 1019.8 1019.8 0.0
23/05:30am 9.3 7.7 8.7 96 0.3 ESE 7 9 4 5 1019.6 1019.6 0.0
23/05:00am 8.6 8.3 8.6 100 0.0 CALM 0 0 0 0 1019.5 1019.5 0.0
23/04:30am 8.6 7.1 8.6 100 0.0 SE 6 7 3 4 1019.4 1019.4 0.0
23/04:00am 9.0 8.4 9.0 100 0.0 S 2 7 1 4 1019.4 1019.4 0.0
23/03:30am 8.4 8.0 8.4 100 0.0 CALM 0 0 0 0 1019.5 1019.5 0.0
23/03:00am 7.7 7.2 7.7 100 0.0 CALM 0 0 0 0 1019.5 1019.5 0.0
23/02:30am 7.9 7.4 7.9 100 0.0 CALM 0 0 0 0 1019.5 1019.5 0.0
23/02:00am 7.4 6.8 7.4 100 0.0 CALM 0 0 0 0 1019.5 1019.5 0.0
23/01:30am 7.6 5.9 7.6 100 0.0 S 6 6 3 3 1019.7 1019.7 0.0
23/01:00am 8.0 6.3 7.7 98 0.1 S 6 6 3 3 1020.1 1020.1 0.0
23/12:30am 8.5 6.8 7.7 95 0.4 S 6 6 3 3 1020.3 1020.3 0.0
23/12:00am 8.8 7.2 7.9 94 0.4 SSE 6 7 3 4 1020.5 1020.5 0.0
 
Date/Time
WST
Temp
°C
App
Temp
°C
Dew
Point
°C
Rel
Hum
%
Delta-T
°C
Wind Press
QNH
hPa
Press
MSL
hPa
Rain since
9am
mm
Dir  Spd
km/h
Gust
km/h
Spd
kts
Gust
kts
22/11:30pm 9.3 7.3 8.5 95 0.4 SSE 9 9 5 5 1020.6 1020.6 0.0
22/11:00pm 9.4 7.8 8.2 92 0.6 SSE 6 6 3 3 1021.0 1021.0 0.0
22/10:30pm 10.1 8.4 8.5 90 0.8 SSE 7 9 4 5 1021.1 1021.1 0.0
22/10:00pm 11.3 9.3 8.7 84 1.3 SSE 9 9 5 5 1021.3 1021.3 0.0
22/09:30pm 12.0 10.0 8.5 79 1.7 S 9 9 5 5 1021.4 1021.4 0.0
22/09:00pm 12.7 11.0 8.4 75 2.1 S 7 11 4 6 1021.1 1021.1 0.0
22/08:30pm 13.4 11.0 8.5 72 2.5 S 11 15 6 8 1021.2 1021.2 0.0
22/08:00pm 14.1 11.2 8.1 67 3.0 S 13 17 7 9 1021.2 1021.2 0.0
22/07:30pm 14.5 11.1 7.5 63 3.5 SSW 15 19 8 10 1021.1 1021.1 0.0
22/07:00pm 15.1 10.9 7.4 60 3.8 SSW 19 24 10 13 1020.9 1020.9 0.0
22/06:30pm 15.5 10.8 7.8 60 3.9 SSW 22 28 12 15 1020.8 1020.8 0.0
22/06:00pm 16.2 12.0 8.2 59 4.0 SSW 20 26 11 14 1020.4 1020.4 0.0
22/05:30pm 16.8 12.8 9.0 60 4.0 SW 20 28 11 15 1020.0 1020.0 0.0
22/05:00pm 17.4 13.0 9.1 58 4.3 SW 22 32 12 17 1019.9 1019.9 0.0
22/04:30pm 17.9 13.4 8.7 55 4.8 SW 22 30 12 16 1019.8 1019.8 0.0
22/04:00pm 17.9 12.5 7.9 52 5.1 WSW 26 35 14 19 1019.6 1019.6 0.0
22/03:30pm 19.1 14.6 8.7 51 5.4 WSW 22 30 12 16 1019.5 1019.5 0.0
22/03:00pm 18.5 13.3 8.7 53 5.1 SW 26 35 14 19 1019.8 1019.8 0.0
22/02:30pm 18.5 14.4 8.7 53 5.1 WSW 20 28 11 15 1019.9 1019.9 0.0
22/02:00pm 17.7 12.6 9.1 57 4.5 SW 26 33 14 18 1020.2 1020.2 0.0
22/01:30pm 17.4 11.9 9.3 59 4.2 WSW 28 39 15 21 1020.5 1020.5 0.0
22/01:00pm 18.1 13.5 8.1 52 5.1 SW 22 30 12 16 1020.4 1020.4 0.0
22/12:30pm 18.9 13.4 7.4 47 5.8 WSW 26 35 14 19 1020.4 1020.4 0.0
22/12:00pm 18.6 13.8 7.4 48 5.7 WSW 22 39 12 21 1020.5 1020.5 0.0
22/11:30am 18.1 13.6 8.7 54 4.9 SW 22 32 12 17 1020.7 1020.7 0.0
22/11:00am 17.3 12.2 9.2 59 4.2 SW 26 35 14 19 1020.9 1020.9 0.0
22/10:30am 17.8 14.5 8.1 53 5.0 SW 15 24 8 13 1020.7 1020.7 0.0
22/10:00am 16.6 13.9 10.5 67 3.2 SSW 15 20 8 11 1020.9 1020.9 0.0
22/09:30am 14.4 13.2 11.7 84 1.5 SW 9 13 5 7 1021.0 1021.0 0.0
22/09:00am 15.0 10.5 10.0 72 2.6 SSW 24 30 13 16 1021.0 1021.0 2.2
22/08:30am 16.6 12.4 7.3 54 4.6 WSW 19 26 10 14 1020.5 1020.5 2.2
22/08:00am 16.0 12.2 9.0 63 3.6 SW 19 26 10 14 1020.3 1020.3 2.2
22/07:30am 15.4 13.8 8.6 64 3.5 S 7 9 4 5 1020.0 1020.0 2.2
22/07:00am 14.8 11.7 9.0 68 3.0 WSW 15 24 8 13 1019.9 1019.9 2.2
22/06:30am 14.5 11.6 9.7 73 2.5 SW 15 19 8 10 1019.5 1019.5 2.2
22/06:00am 15.0 11.4 6.6 57 4.1 W 15 20 8 11 1019.1 1019.1 2.2
22/05:30am 14.6 11.9 5.7 55 4.2 WSW 9 13 5 7 1018.9 1018.9 2.2
22/05:00am 14.8 10.6 5.9 55 4.2 WSW 17 24 9 13 1018.8 1018.8 2.2
22/04:30am 15.0 10.4 6.3 56 4.2 SW 20 28 11 15 1018.7 1018.7 2.2
22/04:00am 14.8 12.1 7.4 61 3.6 SSW 11 13 6 7 1018.4 1018.4 2.2
22/03:30am 15.1 11.8 6.4 56 4.2 SW 13 19 7 10 1018.1 1018.1 2.2
22/03:00am 15.1 11.5 6.7 57 4.1 SW 15 20 8 11 1018.1 1018.1 2.2
22/02:30am 15.3 11.5 5.8 53 4.6 WSW 15 19 8 10 1018.0 1018.0 2.2
22/02:00am 15.4 11.0 6.4 55 4.4 WSW 19 30 10 16 1017.9 1017.9 2.2
22/01:30am 15.3 11.1 7.3 59 4.0 SW 19 26 10 14 1017.9 1017.9 2.2
22/01:00am 15.3 11.3 8.1 62 3.6 SW 19 24 10 13 1018.0 1018.0 2.2
22/12:30am 15.4 12.6 8.6 64 3.5 SW 13 19 7 10 1018.1 1018.1 2.2
22/12:00am 15.6 11.8 9.1 65 3.3 SW 19 26 10 14 1018.3 1018.3 2.2
 
Date/Time
WST
Temp
°C
App
Temp
°C
Dew
Point
°C
Rel
Hum
%
Delta-T
°C
Wind Press
QNH
hPa
Press
MSL
hPa
Rain since
9am
mm
Dir  Spd
km/h
Gust
km/h
Spd
kts
Gust
kts
21/11:30pm 15.6 12.0 6.6 55 4.4 WSW 15 22 8 12 1018.3 1018.3 2.2
21/11:00pm 15.7 11.6 8.7 63 3.6 SW 20 28 11 15 1018.4 1018.4 2.2
21/10:30pm 15.6 12.2 7.6 59 4.0 WSW 15 20 8 11 1018.6 1018.6 2.2
21/10:00pm 15.5 12.6 8.3 62 3.6 WSW 13 20 7 11 1018.6 1018.6 2.2
21/09:30pm 15.5 12.2 8.0 61 3.8 WSW 15 22 8 12 1018.6 1018.6 2.2
21/09:00pm 15.3 11.8 7.3 59 3.9 WSW 15 24 8 13 1018.6 1018.6 2.2
21/08:30pm 14.8 10.9 7.1 60 3.8 SW 17 26 9 14 1018.6 1018.6 2.2
21/08:00pm 14.8 10.4 7.6 62 3.6 SW 20 30 11 16 1018.4 1018.4 2.2
21/07:30pm 15.3 11.3 9.0 66 3.2 SW 20 26 11 14 1018.1 1018.1 2.2
21/07:00pm 15.3 11.5 9.7 69 2.9 SW 20 28 11 15 1017.7 1017.7 2.2
21/06:30pm 15.8 11.1 10.6 71 2.8 SW 26 35 14 19 1017.5 1017.5 2.2
21/06:00pm 16.5 11.6 11.4 72 2.8 SW 28 37 15 20 1017.2 1017.2 2.2
21/05:30pm 17.5 13.5 11.8 69 3.1 WSW 24 37 13 20 1016.9 1016.9 2.2
21/05:00pm 17.9 13.4 12.6 71 2.9 SW 28 39 15 21 1016.6 1016.6 2.2
21/04:30pm 18.3 13.2 13.2 72 2.9 SW 32 46 17 25 1016.4 1016.4 2.2
21/04:00pm 19.6 14.2 12.1 62 4.2 WSW 32 46 17 25 1016.2 1016.2 2.2
21/03:30pm 19.4 14.1 14.2 72 3.0 WSW 35 46 19 25 1016.0 1016.0 2.2
21/03:00pm 18.9 14.6 14.4 75 2.6 W 30 39 16 21 1015.8 1015.8 2.2
21/02:30pm 18.1 15.9 15.9 87 1.3 WSW 22 41 12 22 1016.0 1016.0 2.2
21/02:00pm 18.8 16.4 16.4 86 1.4 WSW 24 35 13 19 1016.1 1016.1 2.0
21/01:37pm 17.8 15.0 16.3 91 0.9 WSW 26 33 14 18 1016.2 1016.2 2.0
21/01:34pm 17.4 14.4 15.9 91 0.9 W 26 33 14 18 1016.2 1016.2 2.0
21/01:30pm 17.6 15.0 16.8 95 0.5 WSW 26 39 14 21 1016.4 1016.4 2.0
21/01:11pm 17.2 14.5 16.6 96 0.4 WSW 26 33 14 18 1016.3 1016.3 1.6
21/01:00pm 18.8 16.3 17.1 90 1.0 WSW 26 35 14 19 1016.1 1016.1 1.4
21/12:56pm 18.2 15.5 16.5 90 1.0 WSW 26 35 14 19 1016.0 1016.0 1.4
21/12:50pm 18.3 15.4 17.1 93 0.7 WSW 28 39 15 21 1016.1 1016.1 1.4
21/12:31pm 17.3 13.0 15.8 91 0.9 W 33 48 18 26 1016.2 1016.2 1.2
21/12:30pm 17.5 12.8 15.8 90 1.0 W 35 48 19 26 1016.3 1016.3 1.0
21/12:14pm 19.9 14.5 13.8 68 3.5 W 35 54 19 29 1016.1 1016.1 0.2
21/12:00pm 20.3 14.4 13.7 66 3.8 WNW 37 50 20 27 1016.1 1016.1 0.2
21/11:30am 19.6 14.2 13.8 69 3.3 W 35 44 19 24 1016.4 1016.4 0.2
21/11:00am 19.4 15.2 16.2 82 1.9 WNW 33 43 18 23 1016.4 1016.4 0.2
21/10:41am 18.1 14.5 15.2 83 1.7 W 28 35 15 19 1016.6 1016.6 0.0
21/10:30am 17.0 12.1 15.3 90 1.0 W 35 54 19 29 1016.7 1016.7 0.0
21/10:29am 17.0 12.1 15.3 90 1.0 W 35 54 19 29 1016.7 1016.7 0.0
21/10:28am 16.9 11.5 15.1 89 1.0 W 37 54 20 29 1016.7 1016.7 0.0
21/10:22am 19.2 14.1 14.7 75 2.6 W 35 54 19 29 1016.6 1016.6 0.0
21/10:00am 19.2 14.2 14.0 72 3.0 WNW 33 43 18 23 1016.5 1016.5 0.0
21/09:33am 17.5 13.3 14.6 83 1.7 W 30 48 16 26 1016.5 1016.5 0.0
21/09:31am 17.7 13.9 14.6 82 1.8 WNW 28 43 15 23 1016.4 1016.4 0.0
21/09:30am 17.6 14.1 14.5 82 1.8 WNW 26 41 14 22 1016.4 1016.4 0.0
21/09:24am 17.8 14.0 14.7 82 1.8 WNW 28 46 15 25 1016.5 1016.5 0.0
21/09:16am 16.7 11.6 14.7 88 1.2 WNW 35 46 19 25 1016.5 1016.5 0.0
21/09:00am 18.7 13.4 13.1 70 3.2 WNW 33 44 18 24 1016.3 1016.3 0.4
21/08:30am 18.2 13.0 12.9 71 3.0 WNW 32 46 17 25 1016.3 1016.3 0.4
21/08:00am 18.0 13.0 13.3 74 2.7 WNW 32 41 17 22 1016.1 1016.1 0.4
21/07:30am 17.8 12.5 12.5 71 2.9 W 32 43 17 23 1016.1 1016.1 0.4
21/07:00am 17.4 13.1 12.1 71 2.9 W 26 33 14 18 1016.0 1016.0 0.4
21/06:30am 16.4 12.3 12.8 79 2.0 WNW 26 35 14 19 1016.0 1016.0 0.4
21/06:00am 16.8 12.2 11.1 69 3.1 WNW 26 37 14 20 1015.8 1015.8 0.4
21/05:30am 16.5 13.4 12.1 75 2.4 WNW 20 30 11 16 1015.3 1015.3 0.4
21/05:00am 15.9 13.1 12.5 80 1.9 NW 19 26 10 14 1015.1 1015.1 0.4
21/04:30am 16.0 11.5 12.6 80 1.9 NW 28 41 15 22 1015.2 1015.2 0.4
21/04:00am 16.4 13.2 9.8 65 3.5 WNW 17 24 9 13 1015.2 1015.2 0.4
21/03:30am 16.8 12.3 10.2 65 3.5 WNW 24 32 13 17 1015.1 1015.1 0.4
21/03:00am 16.8 12.6 8.2 57 4.4 WNW 20 30 11 16 1015.1 1015.1 0.4
21/02:30am 16.2 13.6 12.0 76 2.3 WNW 17 22 9 12 1015.1 1015.1 0.4
21/02:00am 16.2 12.1 11.6 74 2.5 WNW 24 32 13 17 1015.2 1015.2 0.4
21/01:30am 16.3 13.0 11.7 74 2.5 WNW 20 30 11 16 1015.3 1015.3 0.4
21/01:00am 16.4 13.7 11.8 74 2.5 NW 17 24 9 13 1015.6 1015.6 0.4
21/12:30am 16.0 14.0 12.6 80 1.9 NW 15 28 8 15 1016.1 1016.1 0.4
21/12:00am 15.5 13.1 11.3 76 2.3 WNW 15 20 8 11 1016.5 1016.5 0.4
 
Date/Time
WST
Temp
°C
App
Temp
°C
Dew
Point
°C
Rel
Hum
%
Delta-T
°C
Wind Press
QNH
hPa
Press
MSL
hPa
Rain since
9am
mm
Dir  Spd
km/h
Gust
km/h
Spd
kts
Gust
kts
20/11:30pm 15.5 13.7 12.1 80 1.9 NW 13 15 7 8 1016.8 1016.8 0.2
20/11:00pm 15.6 13.3 11.8 78 2.1 WNW 15 20 8 11 1017.0 1017.0 0.2
20/10:30pm 15.5 12.1 12.6 83 1.6 W 22 30 12 16 1017.4 1017.4 0.2
20/10:00pm 15.6 13.1 12.4 81 1.8 WNW 17 20 9 11 1017.7 1017.7 0.2
20/09:30pm 15.5 13.4 12.3 81 1.8 W 15 20 8 11 1018.1 1018.1 0.2
20/09:00pm 15.1 13.9 14.0 93 0.6 WNW 13 17 7 9 1018.6 1018.6 0.2
20/08:30pm 15.2 12.6 13.1 87 1.2 WNW 19 24 10 13 1018.5 1018.5 0.2
20/08:06pm 14.8 11.1 12.8 88 1.1 W 24 33 13 18 1018.3 1018.3 0.2
20/08:00pm 14.7 10.4 13.2 91 0.8 WNW 28 35 15 19 1018.3 1018.3 0.2
20/07:56pm 14.7 10.6 13.7 94 0.6 WNW 28 35 15 19 1018.3 1018.3 0.2
20/07:30pm 16.1 14.0 12.5 79 2.0 NW 15 19 8 10 1018.0 1018.0 0.0
20/07:00pm 16.0 13.7 11.8 76 2.3 WNW 15 20 8 11 1017.9 1017.9 0.0
20/06:30pm 15.3 13.2 12.4 83 1.6 NW 15 20 8 11 1017.7 1017.7 0.0
20/06:00pm 15.3 12.8 14.0 92 0.7 W 20 28 11 15 1017.9 1017.9 0.0
20/05:30pm 17.5 14.5 12.4 72 2.8 W 20 32 11 17 1017.7 1017.7 0.0
20/05:00pm 18.0 13.6 11.8 67 3.4 WNW 26 39 14 21 1017.6 1017.6 0.0
20/04:30pm 18.3 13.3 11.1 63 3.9 WNW 28 35 15 19 1017.5 1017.5 0.0
20/04:00pm 18.6 14.4 11.2 62 4.0 WNW 24 35 13 19 1017.5 1017.5 0.0
20/03:30pm 19.1 14.5 11.2 60 4.3 WNW 26 33 14 18 1017.4 1017.4 0.0
20/03:00pm 17.9 15.0 13.0 73 2.7 WNW 20 26 11 14 1017.6 1017.6 0.0
20/02:30pm 18.0 14.1 12.2 69 3.2 W 24 32 13 17 1017.8 1017.8 0.0
20/02:00pm 18.3 13.4 11.4 64 3.8 NW 28 37 15 20 1018.0 1018.0 0.0
20/01:30pm 18.6 14.2 11.7 64 3.8 WNW 26 35 14 19 1018.2 1018.2 0.0

Latest Capital City Observations: Canberra | Sydney | Melbourne | Brisbane | Adelaide | Perth | Hobart | Darwin

Other Formats:

Comma delimited format used in spreadsheet applications
http://www.bom.gov.au/fwo/IDW60901/IDW60901.94609.axf

JavaScript Object Notation format (JSON) in row-major order
http://www.bom.gov.au/fwo/IDW60901/IDW60901.94609.json